Time,TemperatureF,DewpointF,PressureIn,WindDirection,WindDirectionDegrees,WindSpeedMPH,WindSpeedGustMPH,Humidity,HourlyPrecipIn,Conditions,Clouds,dailyrainin,SoftwareType,DateUTC
2013-02-25 00:00:00,77.0,73.8,29.78,South,180,0.0,0.0,90,0.00,SCT,,0.00,WeatherDisplay:10.37,2013-02-24 14:00:00,
2013-02-25 00:10:00,77.2,74.0,29.80,South,180,0.0,0.0,90,0.00,SCT,,0.00,WeatherDisplay:10.37,2013-02-24 14:10:00,
2013-02-25 00:15:00,77.2,74.0,29.79,South,180,0.0,0.0,90,0.00,SCT,,0.00,WeatherDisplay:10.37,2013-02-24 14:15:00,
2013-02-25 00:20:00,77.2,74.1,29.79,South,180,1.0,2.0,90,0.00,SCT,,0.00,WeatherDisplay:10.37,2013-02-24 14:20:00,
2013-02-25 00:25:00,77.2,74.0,29.79,South,180,0.0,1.0,90,0.00,SCT,,0.00,WeatherDisplay:10.37,2013-02-24 14:25:00,
2013-02-25 00:30:00,77.2,74.0,29.79,South,180,0.0,2.0,90,0.00,SCT,,0.00,WeatherDisplay:10.37,2013-02-24 14:30:00,
2013-02-25 00:35:00,77.2,74.0,29.79,South,180,0.0,1.0,90,0.00,SCT,,0.00,WeatherDisplay:10.37,2013-02-24 14:35:00,
2013-02-25 00:45:00,77.1,73.9,29.78,South,180,0.0,2.0,90,0.00,SCT,,0.00,WeatherDisplay:10.37,2013-02-24 14:45:00,
2013-02-25 00:50:00,76.9,73.7,29.77,South,184,2.0,4.0,90,0.00,SCT,,0.00,WeatherDisplay:10.37,2013-02-24 14:50:00,
2013-02-25 00:55:00,76.8,73.6,29.77,SSW,198,0.0,2.0,90,0.00,SCT,,0.00,WeatherDisplay:10.37,2013-02-24 14:55:00,
2013-02-25 01:00:00,76.7,73.9,29.77,SSW,206,0.0,0.0,91,0.00,SCT,,0.00,WeatherDisplay:10.37,2013-02-24 15:00:00,
2013-02-25 01:05:00,76.6,73.8,29.77,SSW,206,0.0,0.0,91,0.00,BKN,,0.00,WeatherDisplay:10.37,2013-02-24 15:05:00,
2013-02-25 01:10:00,76.6,73.8,29.76,SSW,206,0.0,0.0,91,0.00,BKN,,0.00,WeatherDisplay:10.37,2013-02-24 15:10:00,
2013-02-25 01:15:00,76.6,73.8,29.76,SSW,206,0.0,3.0,91,0.00,BKN,,0.00,WeatherDisplay:10.37,2013-02-24 15:15:00,
2013-02-25 01:20:00,76.6,73.8,29.76,SSW,206,0.0,2.0,91,0.00,SCT,,0.00,WeatherDisplay:10.37,2013-02-24 15:20:00,
2013-02-25 01:25:00,76.5,73.7,29.76,SSW,206,0.0,0.0,91,0.00,SCT,,0.00,WeatherDisplay:10.37,2013-02-24 15:25:00,
2013-02-25 01:30:00,76.4,73.6,29.76,SSW,206,0.0,0.0,91,0.00,SCT,,0.00,WeatherDisplay:10.37,2013-02-24 15:30:00,
2013-02-25 01:35:00,76.4,73.6,29.75,SSW,206,0.0,0.0,91,0.00,SCT,,0.00,WeatherDisplay:10.37,2013-02-24 15:35:00,
2013-02-25 01:40:00,76.4,73.6,29.75,SSW,206,0.0,0.0,91,0.00,SCT,,0.00,WeatherDisplay:10.37,2013-02-24 15:40:00,
2013-02-25 01:45:00,76.4,73.6,29.75,SSW,206,0.0,1.0,91,0.00,SCT,,0.00,WeatherDisplay:10.37,2013-02-24 15:45:00,
2013-02-25 01:50:00,76.4,73.6,29.75,SSW,206,0.0,2.0,91,0.00,SCT,,0.00,WeatherDisplay:10.37,2013-02-24 15:50:00,
2013-02-25 02:00:00,76.2,73.4,29.75,SSW,206,0.0,2.0,91,0.00,SCT,,0.00,WeatherDisplay:10.37,2013-02-24 16:00:00,
2013-02-25 02:10:00,76.1,73.3,29.74,SSW,206,0.0,1.0,91,0.00,SCT,,0.00,WeatherDisplay:10.37,2013-02-24 16:10:00,
2013-02-25 02:15:00,76.1,73.3,29.74,SSW,206,1.0,2.0,91,0.00,SCT,,0.00,WeatherDisplay:10.37,2013-02-24 16:15:00,
2013-02-25 02:25:00,76.1,73.3,29.74,SSW,206,1.0,2.0,91,0.00,SCT,,0.00,WeatherDisplay:10.37,2013-02-24 16:25:00,
2013-02-25 02:30:00,76.0,73.2,29.74,SSW,208,1.0,3.0,91,0.00,SCT,,0.00,WeatherDisplay:10.37,2013-02-24 16:30:00,
2013-02-25 02:35:00,75.9,73.1,29.74,SW,215,0.0,4.0,91,0.00,SCT,,0.00,WeatherDisplay:10.37,2013-02-24 16:35:00,
2013-02-25 02:40:00,75.7,72.9,29.74,SW,219,0.0,3.0,91,0.00,SCT,,0.00,WeatherDisplay:10.37,2013-02-24 16:40:00,
2013-02-25 02:45:00,75.7,72.9,29.74,SW,219,0.0,2.0,91,0.00,SCT,,0.00,WeatherDisplay:10.37,2013-02-24 16:45:00,
2013-02-25 02:50:00,75.6,72.8,29.74,SW,219,0.0,3.0,91,0.00,SCT,,0.00,WeatherDisplay:10.37,2013-02-24 16:50:00,
2013-02-25 02:55:00,75.6,72.8,29.74,SW,216,0.0,3.0,91,0.00,SCT,,0.00,WeatherDisplay:10.37,2013-02-24 16:55:00,
2013-02-25 03:00:00,75.6,72.8,29.74,SW,218,0.0,3.0,91,0.00,SCT,,0.00,WeatherDisplay:10.37,2013-02-24 17:00:00,
2013-02-25 03:10:00,75.6,72.8,29.74,SW,226,1.0,5.0,91,0.00,FEW,,0.00,WeatherDisplay:10.37,2013-02-24 17:10:00,
2013-02-25 03:15:00,75.6,72.8,29.74,SW,227,0.0,3.0,91,0.00,FEW,,0.00,WeatherDisplay:10.37,2013-02-24 17:15:00,
2013-02-25 03:20:00,75.5,72.7,29.74,SSW,194,0.0,3.0,91,0.00,FEW,,0.00,WeatherDisplay:10.37,2013-02-24 17:20:00,
2013-02-25 03:25:00,75.3,72.5,29.74,SSW,198,0.0,4.0,91,0.00,FEW,,0.00,WeatherDisplay:10.37,2013-02-24 17:25:00,
2013-02-25 03:30:00,75.2,72.4,29.74,SSW,212,0.0,3.0,91,0.00,FEW,,0.00,WeatherDisplay:10.37,2013-02-24 17:30:00,
2013-02-25 03:35:00,75.2,72.4,29.74,SSW,200,0.0,2.0,91,0.00,FEW,,0.00,WeatherDisplay:10.37,2013-02-24 17:35:00,
2013-02-25 03:40:00,75.1,72.3,29.73,SSW,198,0.0,2.0,91,0.00,FEW,,0.00,WeatherDisplay:10.37,2013-02-24 17:40:00,
2013-02-25 03:45:00,75.1,72.3,29.73,SSW,199,0.0,2.0,91,0.00,FEW,,0.00,WeatherDisplay:10.37,2013-02-24 17:45:00,
2013-02-25 03:50:00,75.1,72.3,29.73,SSW,201,0.0,3.0,91,0.00,FEW,,0.00,WeatherDisplay:10.37,2013-02-24 17:50:00,
2013-02-25 03:55:00,75.1,72.3,29.73,SSW,201,0.0,3.0,91,0.00,FEW,,0.00,WeatherDisplay:10.37,2013-02-24 17:55:00,
2013-02-25 04:00:00,75.1,72.3,29.73,SSW,206,1.0,3.0,91,0.00,FEW,,0.00,WeatherDisplay:10.37,2013-02-24 18:00:00,
2013-02-25 04:05:00,75.1,72.3,29.73,SW,222,1.0,3.0,91,0.00,FEW,,0.00,WeatherDisplay:10.37,2013-02-24 18:05:00,
2013-02-25 04:10:00,75.0,72.2,29.73,SW,231,0.0,2.0,91,0.00,FEW,,0.00,WeatherDisplay:10.37,2013-02-24 18:10:00,
2013-02-25 04:15:00,75.0,72.2,29.73,SW,231,1.0,3.0,91,0.00,FEW,,0.00,WeatherDisplay:10.37,2013-02-24 18:15:00,
2013-02-25 04:20:00,74.9,72.1,29.73,SW,231,1.0,4.0,91,0.00,FEW,,0.00,WeatherDisplay:10.37,2013-02-24 18:20:00,
2013-02-25 04:25:00,74.9,72.1,29.73,SW,231,0.0,2.0,91,0.00,FEW,,0.00,WeatherDisplay:10.37,2013-02-24 18:25:00,
2013-02-25 04:30:00,74.9,72.1,29.72,SW,231,0.0,3.0,91,0.00,FEW,,0.00,WeatherDisplay:10.37,2013-02-24 18:30:00,
2013-02-25 04:35:00,74.9,72.1,29.72,SW,231,0.0,3.0,91,0.00,FEW,,0.00,WeatherDisplay:10.37,2013-02-24 18:35:00,
2013-02-25 04:40:00,74.9,72.1,29.72,SW,231,0.0,2.0,91,0.00,FEW,,0.00,WeatherDisplay:10.37,2013-02-24 18:40:00,
2013-02-25 04:45:00,74.9,72.1,29.73,SW,231,1.0,3.0,91,0.00,FEW,,0.00,WeatherDisplay:10.37,2013-02-24 18:45:00,
2013-02-25 04:50:00,75.0,72.1,29.73,SW,231,0.0,2.0,91,0.00,FEW,,0.00,WeatherDisplay:10.37,2013-02-24 18:50:00,
2013-02-25 04:55:00,74.9,72.1,29.74,SW,231,0.0,2.0,91,0.00,FEW,,0.00,WeatherDisplay:10.37,2013-02-24 18:55:00,
2013-02-25 05:00:00,74.9,72.1,29.73,SW,231,1.0,3.0,91,0.00,FEW,,0.00,WeatherDisplay:10.37,2013-02-24 19:00:00,
2013-02-25 05:05:00,74.9,72.1,29.73,SW,232,0.0,4.0,91,0.00,FEW,,0.00,WeatherDisplay:10.37,2013-02-24 19:05:00,
2013-02-25 05:15:00,74.9,71.8,29.73,SW,223,1.0,2.0,90,0.00,FEW,,0.00,WeatherDisplay:10.37,2013-02-24 19:15:00,
2013-02-25 05:20:00,74.8,71.7,29.73,SW,217,1.0,3.0,90,0.00,FEW,,0.00,WeatherDisplay:10.37,2013-02-24 19:20:00,
2013-02-25 05:30:00,74.7,71.6,29.73,SW,223,1.0,4.0,90,0.00,FEW,,0.00,WeatherDisplay:10.37,2013-02-24 19:30:00,
2013-02-25 05:35:00,74.7,71.6,29.74,SW,227,1.0,6.0,90,0.00,FEW,,0.00,WeatherDisplay:10.37,2013-02-24 19:35:00,
2013-02-25 05:45:00,74.8,71.7,29.74,SW,235,1.0,4.0,90,0.00,FEW,,0.00,WeatherDisplay:10.37,2013-02-24 19:45:00,
2013-02-25 05:50:00,74.8,71.7,29.74,WSW,237,1.0,5.0,90,0.00,FEW,,0.00,WeatherDisplay:10.37,2013-02-24 19:50:00,
2013-02-25 05:55:00,74.8,71.7,29.74,SW,233,0.0,5.0,90,0.00,FEW,,0.00,WeatherDisplay:10.37,2013-02-24 19:55:00,
2013-02-25 06:00:00,74.9,71.8,29.74,SW,225,0.0,3.0,90,0.00,FEW,,0.00,WeatherDisplay:10.37,2013-02-24 20:00:00,
2013-02-25 06:10:00,74.9,71.8,29.75,SW,222,1.0,5.0,90,0.00,FEW,,0.00,WeatherDisplay:10.37,2013-02-24 20:10:00,
2013-02-25 06:15:00,74.9,71.8,29.75,SW,214,0.0,3.0,90,0.00,FEW,,0.00,WeatherDisplay:10.37,2013-02-24 20:15:00,
2013-02-25 06:20:00,74.9,71.8,29.76,SW,214,2.0,6.0,90,0.00,FEW,,0.00,WeatherDisplay:10.37,2013-02-24 20:20:00,
2013-02-25 06:25:00,74.9,71.8,29.76,SW,225,0.0,4.0,90,0.00,FEW,,0.00,WeatherDisplay:10.37,2013-02-24 20:25:00,
2013-02-25 06:30:00,74.9,71.7,29.76,SW,231,0.0,4.0,90,0.00,FEW,,0.00,WeatherDisplay:10.37,2013-02-24 20:30:00,
2013-02-25 06:35:00,74.9,71.8,29.76,SW,234,1.0,4.0,90,0.00,FEW,,0.00,WeatherDisplay:10.37,2013-02-24 20:35:00,
2013-02-25 06:40:00,74.9,71.8,29.76,SW,229,1.0,4.0,90,0.00,FEW,,0.00,WeatherDisplay:10.37,2013-02-24 20:40:00,
2013-02-25 06:45:00,74.9,71.8,29.76,SW,216,0.0,3.0,90,0.00,FEW,,0.00,WeatherDisplay:10.37,2013-02-24 20:45:00,
2013-02-25 06:50:00,74.9,71.7,29.76,SSW,212,0.0,3.0,90,0.00,FEW,,0.00,WeatherDisplay:10.37,2013-02-24 20:50:00,
2013-02-25 06:55:00,74.9,71.8,29.76,SW,226,1.0,4.0,90,0.00,FEW,,0.00,WeatherDisplay:10.37,2013-02-24 20:55:00,
2013-02-25 07:00:00,74.9,71.8,29.76,WSW,237,1.0,4.0,90,0.00,FEW,,0.00,WeatherDisplay:10.37,2013-02-24 21:00:00,
2013-02-25 07:10:00,75.0,71.9,29.77,WSW,239,1.0,6.0,90,0.00,FEW,,0.00,WeatherDisplay:10.37,2013-02-24 21:10:00,
2013-02-25 07:15:00,75.1,72.0,29.77,SW,235,1.0,5.0,90,0.00,FEW,,0.00,WeatherDisplay:10.37,2013-02-24 21:15:00,
2013-02-25 07:20:00,75.1,72.0,29.77,SW,234,0.0,5.0,90,0.00,FEW,,0.00,WeatherDisplay:10.37,2013-02-24 21:20:00,
2013-02-25 07:25:00,75.3,72.2,29.77,SW,214,0.0,4.0,90,0.00,FEW,,0.00,WeatherDisplay:10.37,2013-02-24 21:25:00,
2013-02-25 07:30:00,75.5,72.4,29.77,SSW,205,0.0,2.0,90,0.00,FEW,,0.00,WeatherDisplay:10.37,2013-02-24 21:30:00,
2013-02-25 07:35:00,75.7,72.3,29.77,SW,226,1.0,5.0,89,0.00,FEW,,0.00,WeatherDisplay:10.37,2013-02-24 21:35:00,
2013-02-25 07:40:00,76.0,72.5,29.77,SW,225,2.0,5.0,89,0.00,FEW,,0.00,WeatherDisplay:10.37,2013-02-24 21:40:00,
2013-02-25 07:45:00,76.2,72.7,29.77,SW,220,0.0,4.0,89,0.00,FEW,,0.00,WeatherDisplay:10.37,2013-02-24 21:45:00,
2013-02-25 07:50:00,76.6,73.1,29.77,SW,218,0.0,4.0,89,0.00,FEW,,0.00,WeatherDisplay:10.37,2013-02-24 21:50:00,
2013-02-25 08:00:00,77.5,73.4,29.78,SW,218,1.0,4.0,87,0.00,FEW,,0.00,WeatherDisplay:10.37,2013-02-24 22:00:00,
2013-02-25 08:10:00,78.6,74.1,29.78,SW,225,1.0,5.0,86,0.00,FEW,,0.00,WeatherDisplay:10.37,2013-02-24 22:10:00,
2013-02-25 08:15:00,79.1,74.2,29.78,SW,231,2.0,5.0,85,0.00,FEW,,0.00,WeatherDisplay:10.37,2013-02-24 22:15:00,
2013-02-25 08:20:00,79.5,74.6,29.79,WSW,238,2.0,5.0,85,0.00,FEW,,0.00,WeatherDisplay:10.37,2013-02-24 22:20:00,
2013-02-25 08:25:00,79.9,74.7,29.79,SW,222,1.0,3.0,84,0.00,FEW,,0.00,WeatherDisplay:10.37,2013-02-24 22:25:00,
2013-02-25 08:30:00,80.5,74.9,29.79,SW,216,2.0,5.0,83,0.00,FEW,,0.00,WeatherDisplay:10.37,2013-02-24 22:30:00,
2013-02-25 08:35:00,81.1,75.1,29.79,SW,234,2.0,4.0,82,0.00,FEW,,0.00,WeatherDisplay:10.37,2013-02-24 22:35:00,
2013-02-25 08:40:00,81.6,75.2,29.79,SW,228,1.0,4.0,81,0.00,FEW,,0.00,WeatherDisplay:10.37,2013-02-24 22:40:00,
2013-02-25 08:45:00,82.2,75.8,29.79,SSW,197,1.0,4.0,81,0.00,FEW,,0.00,WeatherDisplay:10.37,2013-02-24 22:45:00,
2013-02-25 08:50:00,82.5,75.3,29.79,SW,221,1.0,6.0,79,0.00,FEW,,0.00,WeatherDisplay:10.37,2013-02-24 22:50:00,
2013-02-25 08:55:00,82.9,75.7,29.79,SW,227,1.0,4.0,79,0.00,FEW,,0.00,WeatherDisplay:10.37,2013-02-24 22:55:00,
2013-02-25 09:00:00,83.3,75.7,29.79,SSW,211,1.0,4.0,78,0.00,FEW,,0.00,WeatherDisplay:10.37,2013-02-24 23:00:00,
2013-02-25 09:10:00,84.2,76.2,29.79,SSW,206,1.0,4.0,77,0.00,FEW,,0.00,WeatherDisplay:10.37,2013-02-24 23:10:00,
2013-02-25 09:15:00,84.5,76.5,29.79,SW,233,1.0,3.0,77,0.00,FEW,,0.00,WeatherDisplay:10.37,2013-02-24 23:15:00,
2013-02-25 09:25:00,85.0,76.6,29.79,SSW,205,1.0,3.0,76,0.00,FEW,,0.00,WeatherDisplay:10.37,2013-02-24 23:25:00,
2013-02-25 09:35:00,86.2,76.5,29.79,SE,138,0.0,5.0,73,0.00,FEW,,0.00,WeatherDisplay:10.37,2013-02-24 23:35:00,
2013-02-25 09:40:00,86.5,76.4,29.79,SE,134,0.0,4.0,72,0.00,FEW,,0.00,WeatherDisplay:10.37,2013-02-24 23:40:00,
2013-02-25 09:45:00,87.0,76.9,29.79,South,187,2.0,3.0,72,0.00,FEW,,0.00,WeatherDisplay:10.37,2013-02-24 23:45:00,
2013-02-25 09:50:00,87.4,76.8,29.80,ESE,114,1.0,3.0,71,0.00,FEW,,0.00,WeatherDisplay:10.37,2013-02-24 23:50:00,
2013-02-25 09:55:00,87.4,76.4,29.80,East,87,1.0,4.0,70,0.00,FEW,,0.00,WeatherDisplay:10.37,2013-02-24 23:55:00,
2013-02-25 10:00:00,87.6,77.5,29.80,East,82,3.0,5.0,72,0.00,FEW,,0.00,WeatherDisplay:10.37,2013-02-25 00:00:00,
2013-02-25 10:10:00,87.0,77.3,29.80,ENE,74,5.0,6.0,73,0.00,FEW,,0.00,WeatherDisplay:10.37,2013-02-25 00:10:00,
2013-02-25 10:15:00,87.1,77.8,29.80,ENE,70,3.0,6.0,74,0.00,FEW,,0.00,WeatherDisplay:10.37,2013-02-25 00:15:00,
2013-02-25 10:20:00,86.6,77.3,29.79,ENE,76,3.0,6.0,74,0.00,FEW,,0.00,WeatherDisplay:10.37,2013-02-25 00:20:00,
2013-02-25 10:25:00,86.3,76.6,29.79,East,81,5.0,6.0,73,0.00,FEW,,0.00,WeatherDisplay:10.37,2013-02-25 00:25:00,
2013-02-25 10:30:00,86.2,76.5,29.79,ENE,77,3.0,6.0,73,0.00,FEW,,0.00,WeatherDisplay:10.37,2013-02-25 00:30:00,
2013-02-25 10:35:00,86.7,77.8,29.79,ENE,71,3.0,5.0,75,0.00,FEW,,0.00,WeatherDisplay:10.37,2013-02-25 00:35:00,
2013-02-25 10:45:00,88.2,79.3,29.79,ENE,66,0.0,5.0,75,0.00,FEW,,0.00,WeatherDisplay:10.37,2013-02-25 00:45:00,
2013-02-25 10:50:00,89.1,78.9,29.79,ENE,66,2.0,5.0,72,0.00,FEW,,0.00,WeatherDisplay:10.37,2013-02-25 00:50:00,
2013-02-25 10:55:00,89.4,79.2,29.79,ENE,66,3.0,6.0,72,0.00,FEW,,0.00,WeatherDisplay:10.37,2013-02-25 00:55:00,
2013-02-25 11:00:00,89.0,78.3,29.79,ENE,66,5.0,7.0,71,0.00,FEW,,0.00,WeatherDisplay:10.37,2013-02-25 01:00:00,
2013-02-25 11:05:00,89.0,79.6,29.79,ENE,68,1.0,5.0,74,0.00,FEW,,0.00,WeatherDisplay:10.37,2013-02-25 01:05:00,
2013-02-25 11:15:00,89.5,80.1,29.78,ENE,65,0.0,6.0,74,0.00,FEW,,0.00,WeatherDisplay:10.37,2013-02-25 01:15:00,
2013-02-25 11:20:00,89.8,79.5,29.79,ENE,64,5.0,6.0,72,0.00,FEW,,0.00,WeatherDisplay:10.37,2013-02-25 01:20:00,
2013-02-25 11:25:00,89.8,80.4,29.79,ENE,67,0.0,5.0,74,0.00,FEW,,0.00,WeatherDisplay:10.37,2013-02-25 01:25:00,
2013-02-25 11:30:00,90.3,80.0,29.79,ENE,68,2.0,5.0,72,0.00,FEW,,0.00,WeatherDisplay:10.37,2013-02-25 01:30:00,
2013-02-25 11:35:00,90.6,80.7,29.78,ENE,68,0.0,3.0,73,0.00,FEW,,0.00,WeatherDisplay:10.37,2013-02-25 01:35:00,
2013-02-25 11:40:00,90.9,80.6,29.78,ENE,67,1.0,5.0,72,0.00,FEW,,0.00,WeatherDisplay:10.37,2013-02-25 01:40:00,
2013-02-25 11:45:00,91.1,81.6,29.77,ENE,67,0.0,4.0,74,0.00,FEW,,0.00,WeatherDisplay:10.37,2013-02-25 01:45:00,
2013-02-25 11:50:00,91.2,81.7,29.77,ENE,67,0.0,5.0,74,0.00,FEW,,0.00,WeatherDisplay:10.37,2013-02-25 01:50:00,
2013-02-25 11:55:00,90.9,81.0,29.77,ENE,69,1.0,6.0,73,0.00,FEW,,0.00,WeatherDisplay:10.37,2013-02-25 01:55:00,
2013-02-25 12:00:00,90.9,81.0,29.77,ENE,69,3.0,7.0,73,0.00,FEW,,0.00,WeatherDisplay:10.37,2013-02-25 02:00:00,
2013-02-25 12:10:00,90.4,81.0,29.76,ENE,65,1.0,3.0,74,0.00,FEW,,0.00,WeatherDisplay:10.37,2013-02-25 02:10:00,
2013-02-25 12:15:00,90.6,81.6,29.76,ENE,71,1.0,3.0,75,0.00,FEW,,0.00,WeatherDisplay:10.37,2013-02-25 02:15:00,
2013-02-25 12:20:00,90.6,81.2,29.75,ENE,65,3.0,9.0,74,0.00,FEW,,0.00,WeatherDisplay:10.37,2013-02-25 02:20:00,
2013-02-25 12:25:00,90.5,80.6,29.75,ENE,65,3.0,9.0,73,0.00,FEW,,0.00,WeatherDisplay:10.37,2013-02-25 02:25:00,
2013-02-25 12:30:00,90.3,80.9,29.75,ENE,68,1.0,4.0,74,0.00,FEW,,0.00,WeatherDisplay:10.37,2013-02-25 02:30:00,
2013-02-25 12:35:00,90.5,81.0,29.75,ENE,67,1.0,6.0,74,0.00,FEW,,0.00,WeatherDisplay:10.37,2013-02-25 02:35:00,
2013-02-25 12:40:00,90.5,81.1,29.75,ENE,68,2.0,6.0,74,0.00,FEW,,0.00,WeatherDisplay:10.37,2013-02-25 02:40:00,
2013-02-25 12:45:00,90.6,80.8,29.75,ENE,69,1.0,5.0,73,0.00,FEW,,0.00,WeatherDisplay:10.37,2013-02-25 02:45:00,
2013-02-25 12:50:00,90.4,80.5,29.74,ENE,67,5.0,10.0,73,0.00,FEW,,0.00,WeatherDisplay:10.37,2013-02-25 02:50:00,
2013-02-25 12:55:00,90.0,80.6,29.74,ENE,67,2.0,8.0,74,0.00,FEW,,0.00,WeatherDisplay:10.37,2013-02-25 02:55:00,
2013-02-25 13:00:00,90.2,80.8,29.74,ENE,67,1.0,7.0,74,0.00,FEW,,0.00,WeatherDisplay:10.37,2013-02-25 03:00:00,
2013-02-25 13:10:00,90.7,80.8,29.73,ENE,68,2.0,7.0,73,0.00,FEW,,0.00,WeatherDisplay:10.37,2013-02-25 03:10:00,
2013-02-25 13:15:00,90.7,80.8,29.73,ENE,69,1.0,4.0,73,0.00,FEW,,0.00,WeatherDisplay:10.37,2013-02-25 03:15:00,
2013-02-25 13:20:00,90.7,80.8,29.73,ENE,68,2.0,5.0,73,0.00,FEW,,0.00,WeatherDisplay:10.37,2013-02-25 03:20:00,
2013-02-25 13:25:00,90.7,81.3,29.72,ENE,67,1.0,3.0,74,0.00,FEW,,0.00,WeatherDisplay:10.37,2013-02-25 03:25:00,
2013-02-25 13:30:00,90.7,80.8,29.72,ENE,65,1.0,3.0,73,0.00,FEW,,0.00,WeatherDisplay:10.37,2013-02-25 03:30:00,
2013-02-25 13:35:00,90.7,80.4,29.72,ENE,66,1.0,4.0,72,0.00,FEW,,0.00,WeatherDisplay:10.37,2013-02-25 03:35:00,
2013-02-25 13:40:00,90.6,80.8,29.72,ENE,66,2.0,9.0,73,0.00,FEW,,0.00,WeatherDisplay:10.37,2013-02-25 03:40:00,
2013-02-25 13:45:00,90.5,80.2,29.72,ENE,65,5.0,9.0,72,0.00,FEW,,0.00,WeatherDisplay:10.37,2013-02-25 03:45:00,
2013-02-25 13:50:00,90.6,80.3,29.72,ENE,66,1.0,7.0,72,0.00,FEW,,0.00,WeatherDisplay:10.37,2013-02-25 03:50:00,
2013-02-25 13:55:00,90.6,80.3,29.72,ENE,65,5.0,10.0,72,0.00,FEW,,0.00,WeatherDisplay:10.37,2013-02-25 03:55:00,
2013-02-25 14:00:00,90.3,80.4,29.72,ENE,68,8.0,12.0,73,0.00,FEW,,0.00,WeatherDisplay:10.37,2013-02-25 04:00:00,
2013-02-25 14:10:00,89.3,79.1,29.71,ENE,67,9.0,12.0,72,0.00,FEW,,0.00,WeatherDisplay:10.37,2013-02-25 04:10:00,
2013-02-25 14:15:00,89.1,79.7,29.70,ENE,67,7.0,13.0,74,0.00,FEW,,0.00,WeatherDisplay:10.37,2013-02-25 04:15:00,
2013-02-25 14:20:00,89.4,80.0,29.70,ENE,70,1.0,9.0,74,0.00,FEW,,0.00,WeatherDisplay:10.37,2013-02-25 04:20:00,
2013-02-25 14:25:00,89.6,80.6,29.71,ENE,70,5.0,12.0,75,0.00,FEW,,0.00,WeatherDisplay:10.37,2013-02-25 04:25:00,
2013-02-25 14:30:00,89.5,80.5,29.70,ENE,73,5.0,12.0,75,0.00,FEW,,0.00,WeatherDisplay:10.37,2013-02-25 04:30:00,
2013-02-25 14:35:00,89.3,79.9,29.70,ENE,72,8.0,12.0,74,0.00,FEW,,0.00,WeatherDisplay:10.37,2013-02-25 04:35:00,
2013-02-25 14:40:00,88.8,80.3,29.70,ENE,69,8.0,12.0,76,0.00,FEW,,0.00,WeatherDisplay:10.37,2013-02-25 04:40:00,
2013-02-25 14:45:00,88.6,80.1,29.69,ENE,69,9.0,13.0,76,0.00,FEW,,0.00,WeatherDisplay:10.37,2013-02-25 04:45:00,
2013-02-25 14:50:00,88.6,80.4,29.69,ENE,72,7.0,13.0,77,0.00,FEW,,0.00,WeatherDisplay:10.37,2013-02-25 04:50:00,
2013-02-25 14:55:00,88.4,80.3,29.69,ENE,70,7.0,13.0,77,0.00,FEW,,0.00,WeatherDisplay:10.37,2013-02-25 04:55:00,
2013-02-25 15:00:00,88.8,80.3,29.69,ENE,66,8.0,13.0,76,0.00,FEW,,0.00,WeatherDisplay:10.37,2013-02-25 05:00:00,
2013-02-25 15:05:00,88.9,80.4,29.69,ENE,67,8.0,13.0,76,0.00,FEW,,0.00,WeatherDisplay:10.37,2013-02-25 05:05:00,
2013-02-25 15:10:00,88.2,79.3,29.68,ENE,76,12.0,16.0,75,0.00,FEW,,0.00,WeatherDisplay:10.37,2013-02-25 05:10:00,
2013-02-25 15:15:00,87.4,78.9,29.69,ENE,73,10.0,16.0,76,0.00,FEW,,0.00,WeatherDisplay:10.37,2013-02-25 05:15:00,
2013-02-25 15:20:00,87.2,79.1,29.68,ENE,70,10.0,14.0,77,0.00,FEW,,0.00,WeatherDisplay:10.37,2013-02-25 05:20:00,
2013-02-25 15:25:00,86.4,78.4,29.68,ENE,72,13.0,15.0,77,0.00,FEW,,0.00,WeatherDisplay:10.37,2013-02-25 05:25:00,
2013-02-25 15:30:00,86.8,79.5,29.68,ENE,70,8.0,13.0,79,0.00,FEW,,0.00,WeatherDisplay:10.37,2013-02-25 05:30:00,
2013-02-25 15:35:00,86.8,79.1,29.68,ENE,70,9.0,15.0,78,0.00,FEW,,0.00,WeatherDisplay:10.37,2013-02-25 05:35:00,
2013-02-25 15:40:00,86.8,79.1,29.68,ENE,69,10.0,15.0,78,0.00,FEW,,0.00,WeatherDisplay:10.37,2013-02-25 05:40:00,
2013-02-25 15:45:00,86.5,78.8,29.68,ENE,70,10.0,14.0,78,0.00,FEW,,0.00,WeatherDisplay:10.37,2013-02-25 05:45:00,
2013-02-25 15:50:00,86.0,77.5,29.68,ENE,78,10.0,15.0,76,0.00,FEW,,0.00,WeatherDisplay:10.37,2013-02-25 05:50:00,
2013-02-25 16:00:00,85.8,77.3,29.68,East,90,12.0,16.0,76,0.00,FEW,,0.00,WeatherDisplay:10.37,2013-02-25 06:00:00,
2013-02-25 16:10:00,85.5,77.5,29.68,East,86,12.0,17.0,77,0.00,CLR,,0.00,WeatherDisplay:10.37,2013-02-25 06:10:00,
2013-02-25 16:15:00,85.5,77.5,29.68,East,83,12.0,15.0,77,0.00,CLR,,0.00,WeatherDisplay:10.37,2013-02-25 06:15:00,
2013-02-25 16:20:00,85.3,76.9,29.68,East,86,13.0,17.0,76,0.00,SCT,,0.00,WeatherDisplay:10.37,2013-02-25 06:20:00,
2013-02-25 16:25:00,85.0,77.0,29.68,East,89,8.0,15.0,77,0.00,SCT,,0.00,WeatherDisplay:10.37,2013-02-25 06:25:00,
2013-02-25 16:30:00,85.0,77.8,29.67,East,95,7.0,14.0,79,0.00,SCT,,0.00,WeatherDisplay:10.37,2013-02-25 06:30:00,
2013-02-25 16:35:00,85.0,77.4,29.67,East,100,6.0,14.0,78,0.00,SCT,,0.00,WeatherDisplay:10.37,2013-02-25 06:35:00,
2013-02-25 16:40:00,84.9,77.3,29.67,East,100,2.0,6.0,78,0.00,SCT,,0.00,WeatherDisplay:10.37,2013-02-25 06:40:00,
2013-02-25 16:45:00,84.8,76.8,29.67,East,100,3.0,7.0,77,0.00,SCT,,0.00,WeatherDisplay:10.37,2013-02-25 06:45:00,
2013-02-25 16:50:00,84.8,76.8,29.67,East,98,2.0,6.0,77,0.00,SCT,,0.00,WeatherDisplay:10.37,2013-02-25 06:50:00,
2013-02-25 16:55:00,84.8,76.8,29.68,East,96,6.0,12.0,77,0.00,SCT,,0.00,WeatherDisplay:10.37,2013-02-25 06:55:00,
2013-02-25 17:00:00,84.6,76.6,29.68,East,94,2.0,12.0,77,0.00,SCT,,0.00,WeatherDisplay:10.37,2013-02-25 07:00:00,
2013-02-25 17:10:00,84.7,77.1,29.68,East,94,3.0,12.0,78,0.00,SCT,,0.00,WeatherDisplay:10.37,2013-02-25 07:10:00,
2013-02-25 17:15:00,84.6,77.0,29.68,East,96,2.0,7.0,78,0.00,SCT,,0.00,WeatherDisplay:10.37,2013-02-25 07:15:00,
2013-02-25 17:20:00,84.6,77.0,29.68,East,96,5.0,7.0,78,0.00,SCT,,0.00,WeatherDisplay:10.37,2013-02-25 07:20:00,
2013-02-25 17:25:00,84.6,77.0,29.69,East,95,1.0,6.0,78,0.00,SCT,,0.00,WeatherDisplay:10.37,2013-02-25 07:25:00,
2013-02-25 17:30:00,84.5,76.5,29.69,East,96,2.0,6.0,77,0.00,SCT,,0.00,WeatherDisplay:10.37,2013-02-25 07:30:00,
2013-02-25 17:35:00,84.6,77.4,29.69,East,97,1.0,4.0,79,0.00,SCT,,0.00,WeatherDisplay:10.37,2013-02-25 07:35:00,
2013-02-25 17:40:00,84.5,76.5,29.69,East,94,3.0,5.0,77,0.00,SCT,,0.00,WeatherDisplay:10.37,2013-02-25 07:40:00,
2013-02-25 17:45:00,84.4,76.4,29.69,East,95,0.0,3.0,77,0.00,SCT,,0.00,WeatherDisplay:10.37,2013-02-25 07:45:00,
2013-02-25 17:50:00,84.5,76.9,29.69,ESE,107,0.0,3.0,78,0.00,SCT,,0.00,WeatherDisplay:10.37,2013-02-25 07:50:00,
2013-02-25 17:55:00,84.4,76.4,29.69,ESE,114,0.0,1.0,77,0.00,SCT,,0.00,WeatherDisplay:10.37,2013-02-25 07:55:00,
2013-02-25 18:00:00,84.4,76.4,29.69,ESE,113,0.0,2.0,77,0.00,SCT,,0.00,WeatherDisplay:10.37,2013-02-25 08:00:00,
2013-02-25 18:10:00,84.4,76.8,29.69,East,101,1.0,3.0,78,0.00,SCT,,0.00,WeatherDisplay:10.37,2013-02-25 08:10:00,
2013-02-25 18:15:00,84.3,75.9,29.70,East,100,0.0,2.0,76,0.00,SCT,,0.00,WeatherDisplay:10.37,2013-02-25 08:15:00,
2013-02-25 18:20:00,84.1,75.7,29.70,East,101,0.0,1.0,76,0.00,SCT,,0.00,WeatherDisplay:10.37,2013-02-25 08:20:00,
2013-02-25 18:25:00,84.0,75.6,29.70,East,101,0.0,3.0,76,0.00,SCT,,0.00,WeatherDisplay:10.37,2013-02-25 08:25:00,
2013-02-25 18:30:00,83.9,75.5,29.70,East,101,0.0,0.0,76,0.00,SCT,,0.00,WeatherDisplay:10.37,2013-02-25 08:30:00,
2013-02-25 18:35:00,83.9,75.5,29.70,East,101,0.0,1.0,76,0.00,SCT,,0.00,WeatherDisplay:10.37,2013-02-25 08:35:00,
2013-02-25 18:40:00,83.8,75.4,29.70,East,101,0.0,1.0,76,0.00,SCT,,0.00,WeatherDisplay:10.37,2013-02-25 08:40:00,
2013-02-25 18:45:00,83.9,76.3,29.70,East,94,5.0,7.0,78,0.00,SCT,,0.00,WeatherDisplay:10.37,2013-02-25 08:45:00,
2013-02-25 18:50:00,83.8,76.2,29.70,East,94,5.0,6.0,78,0.00,SCT,,0.00,WeatherDisplay:10.37,2013-02-25 08:50:00,
2013-02-25 18:55:00,83.7,76.1,29.70,East,93,2.0,5.0,78,0.00,SCT,,0.00,WeatherDisplay:10.37,2013-02-25 08:55:00,
2013-02-25 19:00:00,83.6,76.0,29.70,East,90,1.0,5.0,78,0.00,SCT,,0.00,WeatherDisplay:10.37,2013-02-25 09:00:00,
2013-02-25 19:10:00,83.5,75.9,29.71,East,88,1.0,3.0,78,0.00,SCT,,0.00,WeatherDisplay:10.37,2013-02-25 09:10:00,
2013-02-25 19:15:00,83.4,75.8,29.70,East,88,2.0,4.0,78,0.00,SCT,,0.00,WeatherDisplay:10.37,2013-02-25 09:15:00,
2013-02-25 19:20:00,83.4,75.8,29.71,East,88,1.0,3.0,78,0.00,SCT,,0.00,WeatherDisplay:10.37,2013-02-25 09:20:00,
2013-02-25 19:25:00,83.4,75.8,29.71,East,89,2.0,6.0,78,0.00,SCT,,0.00,WeatherDisplay:10.37,2013-02-25 09:25:00,
2013-02-25 19:30:00,83.4,76.2,29.71,East,89,1.0,4.0,79,0.00,SCT,,0.00,WeatherDisplay:10.37,2013-02-25 09:30:00,
2013-02-25 19:35:00,83.4,75.8,29.72,East,89,0.0,4.0,78,0.00,SCT,,0.00,WeatherDisplay:10.37,2013-02-25 09:35:00,
2013-02-25 19:40:00,83.3,75.3,29.71,East,89,0.0,2.0,77,0.00,SCT,,0.00,WeatherDisplay:10.37,2013-02-25 09:40:00,
2013-02-25 19:45:00,83.2,75.6,29.71,East,89,0.0,0.0,78,0.00,SCT,,0.00,WeatherDisplay:10.37,2013-02-25 09:45:00,
2013-02-25 19:50:00,83.0,75.4,29.71,East,89,0.0,0.0,78,0.00,SCT,,0.00,WeatherDisplay:10.37,2013-02-25 09:50:00,
2013-02-25 19:55:00,82.8,75.2,29.72,East,89,0.0,0.0,78,0.00,SCT,,0.00,WeatherDisplay:10.37,2013-02-25 09:55:00,
2013-02-25 20:00:00,82.6,75.4,29.72,East,89,0.0,0.0,79,0.00,SCT,,0.00,WeatherDisplay:10.37,2013-02-25 10:00:00,
2013-02-25 20:05:00,82.4,75.2,29.72,East,89,0.0,0.0,79,0.00,SCT,,0.00,WeatherDisplay:10.37,2013-02-25 10:05:00,
2013-02-25 20:10:00,82.1,74.9,29.72,East,89,0.0,0.0,79,0.00,SCT,,0.00,WeatherDisplay:10.37,2013-02-25 10:10:00,
2013-02-25 20:15:00,81.9,75.1,29.72,East,89,0.0,0.0,80,0.00,SCT,,0.00,WeatherDisplay:10.37,2013-02-25 10:15:00,
2013-02-25 20:20:00,81.7,75.3,29.73,East,89,0.0,0.0,81,0.00,SCT,,0.00,WeatherDisplay:10.37,2013-02-25 10:20:00,
2013-02-25 20:25:00,81.4,75.0,29.73,East,89,0.0,1.0,81,0.00,SCT,,0.00,WeatherDisplay:10.37,2013-02-25 10:25:00,
2013-02-25 20:30:00,81.2,75.2,29.73,East,89,0.0,1.0,82,0.00,SCT,,0.00,WeatherDisplay:10.37,2013-02-25 10:30:00,
2013-02-25 20:35:00,81.1,75.1,29.73,East,89,0.0,0.0,82,0.00,SCT,,0.00,WeatherDisplay:10.37,2013-02-25 10:35:00,
2013-02-25 20:40:00,80.9,74.9,29.74,East,89,0.0,0.0,82,0.00,SCT,,0.00,WeatherDisplay:10.37,2013-02-25 10:40:00,
2013-02-25 20:50:00,80.7,75.1,29.74,East,89,0.0,0.0,83,0.00,SCT,,0.00,WeatherDisplay:10.37,2013-02-25 10:50:00,
2013-02-25 20:55:00,80.6,75.0,29.74,East,89,0.0,0.0,83,0.00,SCT,,0.00,WeatherDisplay:10.37,2013-02-25 10:55:00,
2013-02-25 21:00:00,80.5,75.2,29.74,East,89,0.0,0.0,84,0.00,SCT,,0.00,WeatherDisplay:10.37,2013-02-25 11:00:00,
2013-02-25 21:10:00,80.3,75.0,29.75,East,89,0.0,0.0,84,0.00,SCT,,0.00,WeatherDisplay:10.37,2013-02-25 11:10:00,
2013-02-25 21:15:00,80.1,74.8,29.75,East,89,0.0,0.0,84,0.00,SCT,,0.00,WeatherDisplay:10.37,2013-02-25 11:15:00,
2013-02-25 21:20:00,79.9,75.0,29.75,East,89,0.0,0.0,85,0.00,SCT,,0.00,WeatherDisplay:10.37,2013-02-25 11:20:00,
2013-02-25 21:25:00,79.7,74.8,29.75,East,89,0.0,0.0,85,0.00,SCT,,0.00,WeatherDisplay:10.37,2013-02-25 11:25:00,
2013-02-25 21:30:00,79.6,74.7,29.76,East,89,0.0,0.0,85,0.00,SCT,,0.00,WeatherDisplay:10.37,2013-02-25 11:30:00,
2013-02-25 21:35:00,79.4,74.5,29.76,East,89,0.0,0.0,85,0.00,SCT,,0.00,WeatherDisplay:10.37,2013-02-25 11:35:00,
2013-02-25 21:40:00,79.3,74.4,29.76,East,89,0.0,0.0,85,0.00,FEW,,0.00,WeatherDisplay:10.37,2013-02-25 11:40:00,
2013-02-25 21:45:00,79.1,74.5,29.76,East,89,0.0,0.0,86,0.00,FEW,,0.00,WeatherDisplay:10.37,2013-02-25 11:45:00,
2013-02-25 21:50:00,78.9,74.4,29.76,East,89,0.0,0.0,86,0.00,FEW,,0.00,WeatherDisplay:10.37,2013-02-25 11:50:00,
2013-02-25 22:00:00,78.6,74.1,29.77,East,89,0.0,0.0,86,0.00,FEW,,0.00,WeatherDisplay:10.37,2013-02-25 12:00:00,
2013-02-25 22:10:00,78.5,74.3,29.77,East,89,0.0,0.0,87,0.00,FEW,,0.00,WeatherDisplay:10.37,2013-02-25 12:10:00,
2013-02-25 22:15:00,78.4,74.2,29.77,East,89,0.0,0.0,87,0.00,FEW,,0.00,WeatherDisplay:10.37,2013-02-25 12:15:00,
2013-02-25 22:20:00,78.2,74.0,29.77,East,89,0.0,0.0,87,0.00,FEW,,0.00,WeatherDisplay:10.37,2013-02-25 12:20:00,
2013-02-25 22:25:00,78.2,74.0,29.77,East,89,0.0,0.0,87,0.00,FEW,,0.00,WeatherDisplay:10.37,2013-02-25 12:25:00,
2013-02-25 22:30:00,78.0,73.8,29.77,East,89,0.0,0.0,87,0.00,FEW,,0.00,WeatherDisplay:10.37,2013-02-25 12:30:00,
2013-02-25 22:35:00,78.0,74.1,29.77,East,89,0.0,0.0,88,0.00,FEW,,0.00,WeatherDisplay:10.37,2013-02-25 12:35:00,
2013-02-25 22:40:00,77.9,74.1,29.78,East,89,0.0,0.0,88,0.00,FEW,,0.00,WeatherDisplay:10.37,2013-02-25 12:40:00,
2013-02-25 22:50:00,77.7,73.9,29.78,East,89,0.0,0.0,88,0.00,FEW,,0.00,WeatherDisplay:10.37,2013-02-25 12:50:00,
2013-02-25 22:55:00,77.6,73.8,29.78,East,89,0.0,0.0,88,0.00,FEW,,0.00,WeatherDisplay:10.37,2013-02-25 12:55:00,
2013-02-25 23:00:00,77.6,73.7,29.78,East,89,0.0,0.0,88,0.00,FEW,,0.00,WeatherDisplay:10.37,2013-02-25 13:00:00,
2013-02-25 23:10:00,77.4,73.9,29.78,East,89,0.0,0.0,89,0.00,FEW,,0.00,WeatherDisplay:10.37,2013-02-25 13:10:00,
2013-02-25 23:15:00,77.3,73.8,29.78,East,89,0.0,0.0,89,0.00,FEW,,0.00,WeatherDisplay:10.37,2013-02-25 13:15:00,
2013-02-25 23:25:00,77.1,73.6,29.77,East,89,0.0,0.0,89,0.00,FEW,,0.00,WeatherDisplay:10.37,2013-02-25 13:25:00,
2013-02-25 23:35:00,77.0,73.5,29.77,East,89,0.0,0.0,89,0.00,FEW,,0.00,WeatherDisplay:10.37,2013-02-25 13:35:00,
2013-02-25 23:40:00,77.1,73.6,29.77,East,89,0.0,0.0,89,0.00,FEW,,0.00,WeatherDisplay:10.37,2013-02-25 13:40:00,
2013-02-25 23:45:00,77.0,73.5,29.76,East,89,0.0,0.0,89,0.00,FEW,,0.00,WeatherDisplay:10.37,2013-02-25 13:45:00,
2013-02-25 23:55:00,77.0,73.5,29.76,East,89,0.0,0.0,89,0.00,FEW,,0.00,WeatherDisplay:10.37,2013-02-25 13:55:00,